Aérodrome :
LOGIN :

S'inscrire | Disclaimer

   EN    FR    IT 

 










Légende :    VFR   VFR Marginal   IFR   IFR Intensif   IFR Très Intensif
Visi : 
Plafond : 
>= 8 km
>= 3000ft
5 à 8 km
1000 à 3000 ft
1500m à 5 km
500 à 1000 ft
800 à 1500m
200 à 500 ft
< 800m
< 200 ft
Symboles :   Orages  Brouillard  Fortes neiges  Fortes précipitations  Vent > 20 kt
SIGMETs :   Divers  Orages  Givrage  Turbulence  Onde Orograph.  Cendres Volcan.







- Altitude de l'aérodrome : 218 ft
- Code IATA : LBG
- Voir les cartes d'approche


LFPB - Paris / Le Bourget

DERNIER METAR :
  • 300230Z AUTO 08005KT CAVOK 06/02 Q1008 NOSIG

METARs EXPIRÉS :
  • 300200Z AUTO VRB02KT CAVOK 06/02 Q1008 NOSIG
  • 300130Z AUTO 06005KT CAVOK 06/02 Q1008 NOSIG
  • 300100Z AUTO 05004KT CAVOK 07/02 Q1009 BECMG 11010KT
  • 300030Z AUTO 06003KT CAVOK 07/02 Q1009 NOSIG
  • 300000Z AUTO 08004KT CAVOK 07/02 Q1010 NOSIG

TAF TAF LFPB
Valide du 30 à 00h jusqu'au 01 à 00h UTC


292300Z 3000/3024 11010KT CAVOK
TEMPO 3008/3016 16010G20KT
PROB40
TEMPO 3014/3015 22015G25KT
PROB40
TEMPO 3019/3023 4000 RA SCT014 BKN032
BECMG 3022/3024 20010KT
ATIS : +33 1 48 62 43 92
Pas de NOTAMs connus pour ce terrain.



MET'MAP, la Météo Aéronautique d'un coup d'oeil ! - Copyright ORBIFLY Décembre 2007 - Disclaimer

ORBIFLY MET'MAP TEAM :

Programmation & Développement : Alexandra Zaïnal
Conception & Développement : Baudouin d'Aumeries
Co-Programmation & Développement : Marc-Olivier Méhu
Soutien technique & logistique : Manuel Goepfert

Contact : metmap@orbifly.com




SOURCES & CREDITS :

   NOAA